Lexington, Michigan
Current Conditions -  °F | °C
As of 5:00 AM on Friday 21 Nov 2014 (Local Time) from CYZR Reporting Station
Clear Clear  
Wind Chill: -18°   Ceiling: Unl
Heat Index: -11°   Visibility: 9mi
Dew Point: -13°   Wind: 9mph
Humidity: 85%   Direction: 290°WNW
Pressure: 30.27"   Gusts: NA
Location:  43.27°N, 82.53°W
Report Text: CYZR 211000Z AUTO 29008KT 9SM CLR M11/M13 A3027 RMK SLP262
Loading
Personal Weather Stations






























Interactive Weather Map New forecast layout! Learn more

10-Day Weather Forecast

Advertisements
Track Severe Weather on mobile